In Rescue
 
Open Full Screen Window  High Contrast Mode
Wind Gusting 17 knots
13
March 31, 2020 3:22 PM CDT
Weather Information
Wind Direction
  120 °
Wind Speed
  13 kt (15 mph)
Wind Gust
  17 kt (20 mph)
Altimeter
29.99 in
Visibility
10 SM
Temperature
11° C
52° F
Dewpoint
03° C
37° F
Humidity
58%
1hr Rain Fall
00.00 in.
24hr Rain Fall
00.00 in.
Sky Condition
Overcast @ 9,000 ft
Broken @ 7,000 ft
VFR

METAR KCNB 312022Z AUTO 12013G17KT 10SM BKN070 OVC090 11/03 A2999 RMK AO2 T01110032

FAA Disclaimer: The data displayed is for advisory purposes only and is not to be used for flight planning or operations.